sensor_id;sensor_type;location;lat;lon;timestamp;temperature;humidity
11132;DHT22;5620;53.570;9.718;2023-11-22T00:01:11;3.70;7.40
11132;DHT22;5620;53.570;9.718;2023-11-22T00:03:37;3.60;38.80
11132;DHT22;5620;53.570;9.718;2023-11-22T00:06:03;3.50;65.30
11132;DHT22;5620;53.570;9.718;2023-11-22T00:08:29;3.40;99.30
11132;DHT22;5620;53.570;9.718;2023-11-22T00:10:56;3.40;99.90
11132;DHT22;5620;53.570;9.718;2023-11-22T00:13:22;3.30;99.90
11132;DHT22;5620;53.570;9.718;2023-11-22T00:15:49;3.30;99.90
11132;DHT22;5620;53.570;9.718;2023-11-22T00:18:16;3.30;99.90
11132;DHT22;5620;53.570;9.718;2023-11-22T00:20:44;3.20;99.90
11132;DHT22;5620;53.570;9.718;2023-11-22T00:23:10;3.20;99.90
11132;DHT22;5620;53.570;9.718;2023-11-22T00:25:35;3.10;99.90
11132;DHT22;5620;53.570;9.718;2023-11-22T00:28:02;3.10;99.90
11132;DHT22;5620;53.570;9.718;2023-11-22T00:30:28;3.00;99.90
11132;DHT22;5620;53.570;9.718;2023-11-22T00:32:54;3.00;99.90
11132;DHT22;5620;53.570;9.718;2023-11-22T00:35:22;3.00;99.90
11132;DHT22;5620;53.570;9.718;2023-11-22T00:37:47;2.90;99.90
11132;DHT22;5620;53.570;9.718;2023-11-22T00:40:16;2.90;99.90
11132;DHT22;5620;53.570;9.718;2023-11-22T00:42:42;2.90;99.90
11132;DHT22;5620;53.570;9.718;2023-11-22T00:45:09;2.80;1.00
11132;DHT22;5620;53.570;9.718;2023-11-22T00:47:36;2.80;1.00
11132;DHT22;5620;53.570;9.718;2023-11-22T00:50:02;2.80;1.00
11132;DHT22;5620;53.570;9.718;2023-11-22T00:52:31;2.80;1.00
11132;DHT22;5620;53.570;9.718;2023-11-22T00:54:57;2.70;1.00
11132;DHT22;5620;53.570;9.718;2023-11-22T00:57:23;2.70;1.00
11132;DHT22;5620;53.570;9.718;2023-11-22T00:59:49;2.70;1.00
11132;DHT22;5620;53.570;9.718;2023-11-22T01:02:15;2.60;1.00
11132;DHT22;5620;53.570;9.718;2023-11-22T01:04:42;2.60;1.00
11132;DHT22;5620;53.570;9.718;2023-11-22T01:07:07;2.50;1.00
11132;DHT22;5620;53.570;9.718;2023-11-22T01:09:33;2.50;1.00
11132;DHT22;5620;53.570;9.718;2023-11-22T01:11:59;2.50;1.00
11132;DHT22;5620;53.570;9.718;2023-11-22T01:14:25;2.50;1.00
11132;DHT22;5620;53.570;9.718;2023-11-22T01:16:51;2.40;1.00
11132;DHT22;5620;53.570;9.718;2023-11-22T01:19:16;2.50;1.00
11132;DHT22;5620;53.570;9.718;2023-11-22T01:21:43;2.40;1.00
11132;DHT22;5620;53.570;9.718;2023-11-22T01:24:09;2.40;20.80
11132;DHT22;5620;53.570;9.718;2023-11-22T01:26:35;2.40;15.40
11132;DHT22;5620;53.570;9.718;2023-11-22T01:29:01;2.40;1.00
11132;DHT22;5620;53.570;9.718;2023-11-22T01:31:27;2.30;22.10
11132;DHT22;5620;53.570;9.718;2023-11-22T01:33:54;2.40;55.90
11132;DHT22;5620;53.570;9.718;2023-11-22T01:36:20;2.30;51.90
11132;DHT22;5620;53.570;9.718;2023-11-22T01:38:46;2.30;99.00
11132;DHT22;5620;53.570;9.718;2023-11-22T01:41:13;2.30;99.90
11132;DHT22;5620;53.570;9.718;2023-11-22T01:43:39;2.30;79.70
11132;DHT22;5620;53.570;9.718;2023-11-22T01:46:10;2.30;49.80
11132;DHT22;5620;53.570;9.718;2023-11-22T01:48:42;2.20;86.90
11132;DHT22;5620;53.570;9.718;2023-11-22T01:51:09;2.20;91.00
11132;DHT22;5620;53.570;9.718;2023-11-22T01:53:36;2.20;99.90
11132;DHT22;5620;53.570;9.718;2023-11-22T01:56:02;2.10;99.90
11132;DHT22;5620;53.570;9.718;2023-11-22T01:58:29;2.10;99.90
11132;DHT22;5620;53.570;9.718;2023-11-22T02:00:57;2.10;99.90
11132;DHT22;5620;53.570;9.718;2023-11-22T02:03:24;2.10;99.90
11132;DHT22;5620;53.570;9.718;2023-11-22T02:05:51;2.10;99.90
11132;DHT22;5620;53.570;9.718;2023-11-22T02:08:18;2.10;99.90
11132;DHT22;5620;53.570;9.718;2023-11-22T02:10:45;2.10;99.90
11132;DHT22;5620;53.570;9.718;2023-11-22T02:13:12;2.10;99.90
11132;DHT22;5620;53.570;9.718;2023-11-22T02:15:39;2.10;99.90
11132;DHT22;5620;53.570;9.718;2023-11-22T02:18:06;2.10;99.90
11132;DHT22;5620;53.570;9.718;2023-11-22T02:20:33;2.10;99.90
11132;DHT22;5620;53.570;9.718;2023-11-22T02:23:08;2.10;99.90
11132;DHT22;5620;53.570;9.718;2023-11-22T02:25:35;2.10;99.90
11132;DHT22;5620;53.570;9.718;2023-11-22T02:28:02;2.10;99.90
11132;DHT22;5620;53.570;9.718;2023-11-22T02:30:29;2.10;99.90
11132;DHT22;5620;53.570;9.718;2023-11-22T02:32:55;2.10;1.00
11132;DHT22;5620;53.570;9.718;2023-11-22T02:35:22;2.10;1.00
11132;DHT22;5620;53.570;9.718;2023-11-22T02:37:49;2.10;1.00
11132;DHT22;5620;53.570;9.718;2023-11-22T02:40:22;2.10;1.00
11132;DHT22;5620;53.570;9.718;2023-11-22T02:42:50;2.10;1.00
11132;DHT22;5620;53.570;9.718;2023-11-22T02:45:19;2.10;1.00
11132;DHT22;5620;53.570;9.718;2023-11-22T02:47:46;2.00;1.00
11132;DHT22;5620;53.570;9.718;2023-11-22T02:50:13;2.00;1.00
11132;DHT22;5620;53.570;9.718;2023-11-22T02:52:40;2.00;1.00
11132;DHT22;5620;53.570;9.718;2023-11-22T02:55:08;2.00;1.00
11132;DHT22;5620;53.570;9.718;2023-11-22T02:57:36;2.00;1.00
11132;DHT22;5620;53.570;9.718;2023-11-22T03:00:04;2.00;1.00
11132;DHT22;5620;53.570;9.718;2023-11-22T03:02:31;2.00;1.00
11132;DHT22;5620;53.570;9.718;2023-11-22T03:04:58;2.00;1.00
11132;DHT22;5620;53.570;9.718;2023-11-22T03:07:26;2.00;1.00
11132;DHT22;5620;53.570;9.718;2023-11-22T03:09:53;2.00;1.00
11132;DHT22;5620;53.570;9.718;2023-11-22T03:12:20;2.00;1.00
11132;DHT22;5620;53.570;9.718;2023-11-22T03:14:47;2.10;1.00
11132;DHT22;5620;53.570;9.718;2023-11-22T03:17:15;2.00;1.00
11132;DHT22;5620;53.570;9.718;2023-11-22T03:19:42;2.10;1.00
11132;DHT22;5620;53.570;9.718;2023-11-22T03:22:09;2.10;1.00
11132;DHT22;5620;53.570;9.718;2023-11-22T03:24:36;2.10;1.00
11132;DHT22;5620;53.570;9.718;2023-11-22T03:27:03;2.10;1.00
11132;DHT22;5620;53.570;9.718;2023-11-22T03:29:30;2.10;6.00
11132;DHT22;5620;53.570;9.718;2023-11-22T03:31:56;2.10;1.00
11132;DHT22;5620;53.570;9.718;2023-11-22T03:34:23;2.20;1.00
11132;DHT22;5620;53.570;9.718;2023-11-22T03:36:50;2.20;1.00
11132;DHT22;5620;53.570;9.718;2023-11-22T03:39:17;2.20;1.00
11132;DHT22;5620;53.570;9.718;2023-11-22T03:41:44;2.20;1.00
11132;DHT22;5620;53.570;9.718;2023-11-22T03:44:10;2.20;42.90
11132;DHT22;5620;53.570;9.718;2023-11-22T03:46:38;2.20;64.40
11132;DHT22;5620;53.570;9.718;2023-11-22T03:49:05;2.20;61.50
11132;DHT22;5620;53.570;9.718;2023-11-22T03:51:33;2.20;49.10
11132;DHT22;5620;53.570;9.718;2023-11-22T03:53:59;2.20;99.90
11132;DHT22;5620;53.570;9.718;2023-11-22T03:56:26;2.30;99.90
11132;DHT22;5620;53.570;9.718;2023-11-22T03:58:52;2.20;85.10
11132;DHT22;5620;53.570;9.718;2023-11-22T04:01:18;2.20;1.00
11132;DHT22;5620;53.570;9.718;2023-11-22T04:03:46;2.20;1.00
11132;DHT22;5620;53.570;9.718;2023-11-22T04:06:13;2.10;1.00
11132;DHT22;5620;53.570;9.718;2023-11-22T04:08:40;2.10;1.00
11132;DHT22;5620;53.570;9.718;2023-11-22T04:11:06;2.10;10.30
11132;DHT22;5620;53.570;9.718;2023-11-22T04:13:33;2.10;33.30
11132;DHT22;5620;53.570;9.718;2023-11-22T04:16:00;2.00;85.40
11132;DHT22;5620;53.570;9.718;2023-11-22T04:18:27;2.00;99.90
11132;DHT22;5620;53.570;9.718;2023-11-22T04:20:53;2.00;96.50
11132;DHT22;5620;53.570;9.718;2023-11-22T04:23:20;1.90;99.90
11132;DHT22;5620;53.570;9.718;2023-11-22T04:25:47;2.00;99.90
11132;DHT22;5620;53.570;9.718;2023-11-22T04:28:14;1.90;99.90
11132;DHT22;5620;53.570;9.718;2023-11-22T04:30:41;1.90;99.90
11132;DHT22;5620;53.570;9.718;2023-11-22T04:33:07;1.90;99.90
11132;DHT22;5620;53.570;9.718;2023-11-22T04:35:34;1.80;99.90
11132;DHT22;5620;53.570;9.718;2023-11-22T04:38:01;1.80;99.90
11132;DHT22;5620;53.570;9.718;2023-11-22T04:40:28;1.80;99.90
11132;DHT22;5620;53.570;9.718;2023-11-22T04:42:54;1.80;99.90
11132;DHT22;5620;53.570;9.718;2023-11-22T04:45:21;1.80;99.90
11132;DHT22;5620;53.570;9.718;2023-11-22T04:47:48;1.80;1.00
11132;DHT22;5620;53.570;9.718;2023-11-22T04:50:15;1.80;1.00
11132;DHT22;5620;53.570;9.718;2023-11-22T04:52:43;1.80;1.00
11132;DHT22;5620;53.570;9.718;2023-11-22T04:55:10;1.80;1.00
11132;DHT22;5620;53.570;9.718;2023-11-22T04:57:37;1.80;1.00
11132;DHT22;5620;53.570;9.718;2023-11-22T05:00:04;1.80;1.00
11132;DHT22;5620;53.570;9.718;2023-11-22T05:02:31;1.80;1.00
11132;DHT22;5620;53.570;9.718;2023-11-22T05:04:57;1.80;1.00
11132;DHT22;5620;53.570;9.718;2023-11-22T05:07:24;1.90;1.00
11132;DHT22;5620;53.570;9.718;2023-11-22T05:09:51;1.80;1.00
11132;DHT22;5620;53.570;9.718;2023-11-22T05:12:18;1.80;1.00
11132;DHT22;5620;53.570;9.718;2023-11-22T05:14:43;1.80;1.00
11132;DHT22;5620;53.570;9.718;2023-11-22T05:17:10;1.70;1.00
11132;DHT22;5620;53.570;9.718;2023-11-22T05:19:36;1.70;1.00
11132;DHT22;5620;53.570;9.718;2023-11-22T05:22:01;1.70;1.00
11132;DHT22;5620;53.570;9.718;2023-11-22T05:24:29;1.70;1.00
11132;DHT22;5620;53.570;9.718;2023-11-22T05:26:54;1.60;2.40
11132;DHT22;5620;53.570;9.718;2023-11-22T05:29:20;1.70;1.00
11132;DHT22;5620;53.570;9.718;2023-11-22T05:31:47;1.90;1.00
11132;DHT22;5620;53.570;9.718;2023-11-22T05:34:13;2.00;1.00
11132;DHT22;5620;53.570;9.718;2023-11-22T05:36:40;2.10;1.00
11132;DHT22;5620;53.570;9.718;2023-11-22T05:39:07;2.20;1.00
11132;DHT22;5620;53.570;9.718;2023-11-22T05:41:34;2.30;99.90
11132;DHT22;5620;53.570;9.718;2023-11-22T05:44:01;2.40;64.60
11132;DHT22;5620;53.570;9.718;2023-11-22T05:46:28;2.40;1.00
11132;DHT22;5620;53.570;9.718;2023-11-22T05:48:55;2.40;1.00
11132;DHT22;5620;53.570;9.718;2023-11-22T05:51:22;2.30;99.90
11132;DHT22;5620;53.570;9.718;2023-11-22T05:53:50;2.30;1.00
11132;DHT22;5620;53.570;9.718;2023-11-22T05:56:17;2.30;99.90
11132;DHT22;5620;53.570;9.718;2023-11-22T05:58:44;2.20;99.90
11132;DHT22;5620;53.570;9.718;2023-11-22T06:01:11;2.20;1.00
11132;DHT22;5620;53.570;9.718;2023-11-22T06:03:38;2.20;1.00
11132;DHT22;5620;53.570;9.718;2023-11-22T06:06:05;2.20;1.00
11132;DHT22;5620;53.570;9.718;2023-11-22T06:08:33;2.10;1.00
11132;DHT22;5620;53.570;9.718;2023-11-22T06:11:00;2.10;1.00
11132;DHT22;5620;53.570;9.718;2023-11-22T06:13:27;2.10;1.00
11132;DHT22;5620;53.570;9.718;2023-11-22T06:15:55;2.10;1.00
11132;DHT22;5620;53.570;9.718;2023-11-22T06:18:21;2.10;1.00
11132;DHT22;5620;53.570;9.718;2023-11-22T06:20:48;2.10;1.00
11132;DHT22;5620;53.570;9.718;2023-11-22T06:23:15;2.10;1.00
11132;DHT22;5620;53.570;9.718;2023-11-22T06:25:42;2.10;5.70
11132;DHT22;5620;53.570;9.718;2023-11-22T06:28:09;2.10;16.90
11132;DHT22;5620;53.570;9.718;2023-11-22T06:30:34;2.10;49.40
11132;DHT22;5620;53.570;9.718;2023-11-22T06:33:01;2.20;83.80
11132;DHT22;5620;53.570;9.718;2023-11-22T06:35:27;2.30;43.80
11132;DHT22;5620;53.570;9.718;2023-11-22T06:37:53;2.20;47.60
11132;DHT22;5620;53.570;9.718;2023-11-22T06:40:19;2.30;54.30
11132;DHT22;5620;53.570;9.718;2023-11-22T06:42:46;2.30;78.30
11132;DHT22;5620;53.570;9.718;2023-11-22T06:45:11;2.40;99.90
11132;DHT22;5620;53.570;9.718;2023-11-22T06:47:37;2.50;99.90
11132;DHT22;5620;53.570;9.718;2023-11-22T06:50:03;2.60;99.90
11132;DHT22;5620;53.570;9.718;2023-11-22T06:52:28;2.70;99.90
11132;DHT22;5620;53.570;9.718;2023-11-22T06:54:55;2.80;99.90
11132;DHT22;5620;53.570;9.718;2023-11-22T06:57:20;2.90;99.90
11132;DHT22;5620;53.570;9.718;2023-11-22T06:59:47;3.00;99.90
11132;DHT22;5620;53.570;9.718;2023-11-22T07:02:13;3.10;33.70
11132;DHT22;5620;53.570;9.718;2023-11-22T07:04:40;3.10;6.40
11132;DHT22;5620;53.570;9.718;2023-11-22T07:07:06;3.20;1.00
11132;DHT22;5620;53.570;9.718;2023-11-22T07:09:31;3.20;1.00
11132;DHT22;5620;53.570;9.718;2023-11-22T07:11:57;3.30;1.00
11132;DHT22;5620;53.570;9.718;2023-11-22T07:14:23;3.30;1.00
11132;DHT22;5620;53.570;9.718;2023-11-22T07:16:49;3.30;1.00
11132;DHT22;5620;53.570;9.718;2023-11-22T07:19:14;3.30;1.00
11132;DHT22;5620;53.570;9.718;2023-11-22T07:21:41;3.30;1.00
11132;DHT22;5620;53.570;9.718;2023-11-22T07:24:07;3.40;1.00
11132;DHT22;5620;53.570;9.718;2023-11-22T07:26:33;3.40;1.00
11132;DHT22;5620;53.570;9.718;2023-11-22T07:29:00;3.40;1.00
11132;DHT22;5620;53.570;9.718;2023-11-22T07:31:26;3.50;1.00
11132;DHT22;5620;53.570;9.718;2023-11-22T07:33:54;3.50;1.00
11132;DHT22;5620;53.570;9.718;2023-11-22T07:36:20;3.60;6.40
11132;DHT22;5620;53.570;9.718;2023-11-22T07:38:46;3.60;7.00
11132;DHT22;5620;53.570;9.718;2023-11-22T07:41:13;3.70;7.10
11132;DHT22;5620;53.570;9.718;2023-11-22T07:43:39;3.70;27.90
11132;DHT22;5620;53.570;9.718;2023-11-22T07:46:07;3.80;94.30
11132;DHT22;5620;53.570;9.718;2023-11-22T07:48:37;3.90;88.40
11132;DHT22;5620;53.570;9.718;2023-11-22T07:51:04;3.90;7.00
11132;DHT22;5620;53.570;9.718;2023-11-22T07:53:31;4.00;7.20
11132;DHT22;5620;53.570;9.718;2023-11-22T07:55:57;4.10;7.20
11132;DHT22;5620;53.570;9.718;2023-11-22T07:58:24;4.20;1.00
11132;DHT22;5620;53.570;9.718;2023-11-22T08:00:51;4.20;1.00
11132;DHT22;5620;53.570;9.718;2023-11-22T08:03:17;4.30;1.00
11132;DHT22;5620;53.570;9.718;2023-11-22T08:05:44;4.30;1.00
11132;DHT22;5620;53.570;9.718;2023-11-22T08:08:11;4.40;1.00
11132;DHT22;5620;53.570;9.718;2023-11-22T08:10:38;4.50;1.00
11132;DHT22;5620;53.570;9.718;2023-11-22T08:13:04;4.60;1.00
11132;DHT22;5620;53.570;9.718;2023-11-22T08:15:32;4.60;1.00
11132;DHT22;5620;53.570;9.718;2023-11-22T08:17:59;4.70;1.00
11132;DHT22;5620;53.570;9.718;2023-11-22T08:20:26;4.80;1.00
11132;DHT22;5620;53.570;9.718;2023-11-22T08:22:53;4.90;1.00
11132;DHT22;5620;53.570;9.718;2023-11-22T08:25:20;5.00;1.00
11132;DHT22;5620;53.570;9.718;2023-11-22T08:27:47;5.00;1.00
11132;DHT22;5620;53.570;9.718;2023-11-22T08:30:14;5.00;99.90
11132;DHT22;5620;53.570;9.718;2023-11-22T08:32:45;5.10;99.90
11132;DHT22;5620;53.570;9.718;2023-11-22T08:35:12;5.20;99.90
11132;DHT22;5620;53.570;9.718;2023-11-22T08:37:41;5.20;99.90
11132;DHT22;5620;53.570;9.718;2023-11-22T08:40:08;5.30;99.90
11132;DHT22;5620;53.570;9.718;2023-11-22T08:42:37;5.40;99.90
11132;DHT22;5620;53.570;9.718;2023-11-22T08:45:07;5.50;99.90
11132;DHT22;5620;53.570;9.718;2023-11-22T08:47:35;5.60;73.60
11132;DHT22;5620;53.570;9.718;2023-11-22T08:50:02;5.70;1.00
11132;DHT22;5620;53.570;9.718;2023-11-22T08:52:29;5.70;1.00
11132;DHT22;5620;53.570;9.718;2023-11-22T08:54:56;5.70;1.00
11132;DHT22;5620;53.570;9.718;2023-11-22T08:57:24;5.80;1.00
11132;DHT22;5620;53.570;9.718;2023-11-22T08:59:51;5.80;1.00
11132;DHT22;5620;53.570;9.718;2023-11-22T09:02:18;5.90;1.00
11132;DHT22;5620;53.570;9.718;2023-11-22T09:04:45;5.90;99.90
11132;DHT22;5620;53.570;9.718;2023-11-22T09:07:12;6.00;99.90
11132;DHT22;5620;53.570;9.718;2023-11-22T09:09:37;6.10;99.90
11132;DHT22;5620;53.570;9.718;2023-11-22T09:12:05;6.00;91.80
11132;DHT22;5620;53.570;9.718;2023-11-22T09:14:31;6.00;76.10
11132;DHT22;5620;53.570;9.718;2023-11-22T09:16:58;6.10;1.00
11132;DHT22;5620;53.570;9.718;2023-11-22T09:19:25;6.10;1.00
11132;DHT22;5620;53.570;9.718;2023-11-22T09:21:52;6.10;1.00
11132;DHT22;5620;53.570;9.718;2023-11-22T09:24:19;6.10;1.00
11132;DHT22;5620;53.570;9.718;2023-11-22T09:26:46;6.20;1.00
11132;DHT22;5620;53.570;9.718;2023-11-22T09:29:13;6.30;1.00
11132;DHT22;5620;53.570;9.718;2023-11-22T09:31:40;6.30;99.90
11132;DHT22;5620;53.570;9.718;2023-11-22T09:34:08;6.30;99.90
11132;DHT22;5620;53.570;9.718;2023-11-22T09:36:35;6.40;99.90
11132;DHT22;5620;53.570;9.718;2023-11-22T09:39:03;6.40;99.90
11132;DHT22;5620;53.570;9.718;2023-11-22T09:41:30;6.60;99.90
11132;DHT22;5620;53.570;9.718;2023-11-22T09:43:57;6.70;37.70
11132;DHT22;5620;53.570;9.718;2023-11-22T09:46:23;6.70;1.00
11132;DHT22;5620;53.570;9.718;2023-11-22T09:48:49;6.70;1.00
11132;DHT22;5620;53.570;9.718;2023-11-22T09:51:37;6.70;99.90
11132;DHT22;5620;53.570;9.718;2023-11-22T09:54:09;6.80;99.90
11132;DHT22;5620;53.570;9.718;2023-11-22T09:56:37;6.80;99.90
11132;DHT22;5620;53.570;9.718;2023-11-22T09:59:04;6.90;99.90
11132;DHT22;5620;53.570;9.718;2023-11-22T10:01:33;6.90;99.90
11132;DHT22;5620;53.570;9.718;2023-11-22T10:04:00;7.00;95.40
11132;DHT22;5620;53.570;9.718;2023-11-22T10:06:28;7.00;55.70
11132;DHT22;5620;53.570;9.718;2023-11-22T10:08:54;7.10;99.90
11132;DHT22;5620;53.570;9.718;2023-11-22T10:11:21;7.20;99.90
11132;DHT22;5620;53.570;9.718;2023-11-22T10:13:52;7.30;1.00
11132;DHT22;5620;53.570;9.718;2023-11-22T10:16:18;7.30;1.00
11132;DHT22;5620;53.570;9.718;2023-11-22T10:18:50;7.40;1.00
11132;DHT22;5620;53.570;9.718;2023-11-22T10:21:26;7.50;99.90
11132;DHT22;5620;53.570;9.718;2023-11-22T10:23:56;7.50;99.90
11132;DHT22;5620;53.570;9.718;2023-11-22T10:26:21;7.60;99.90
11132;DHT22;5620;53.570;9.718;2023-11-22T10:28:50;7.60;99.90
11132;DHT22;5620;53.570;9.718;2023-11-22T10:31:16;7.70;99.90
11132;DHT22;5620;53.570;9.718;2023-11-22T10:33:47;7.80;99.90
11132;DHT22;5620;53.570;9.718;2023-11-22T10:36:13;7.80;99.90
11132;DHT22;5620;53.570;9.718;2023-11-22T10:38:39;7.90;99.90
11132;DHT22;5620;53.570;9.718;2023-11-22T10:41:05;8.00;25.10
11132;DHT22;5620;53.570;9.718;2023-11-22T10:43:31;8.00;63.20
11132;DHT22;5620;53.570;9.718;2023-11-22T10:45:59;8.20;1.00
11132;DHT22;5620;53.570;9.718;2023-11-22T10:48:26;8.40;1.00
11132;DHT22;5620;53.570;9.718;2023-11-22T10:50:53;8.40;1.00
11132;DHT22;5620;53.570;9.718;2023-11-22T10:53:22;8.40;1.00
11132;DHT22;5620;53.570;9.718;2023-11-22T10:55:58;8.50;1.00
11132;DHT22;5620;53.570;9.718;2023-11-22T10:58:27;8.40;99.90
11132;DHT22;5620;53.570;9.718;2023-11-22T11:00:55;8.40;99.90
11132;DHT22;5620;53.570;9.718;2023-11-22T11:03:24;8.40;99.90
11132;DHT22;5620;53.570;9.718;2023-11-22T11:06:03;8.30;99.90
11132;DHT22;5620;53.570;9.718;2023-11-22T11:08:30;8.30;99.90
11132;DHT22;5620;53.570;9.718;2023-11-22T11:10:58;8.50;99.90
11132;DHT22;5620;53.570;9.718;2023-11-22T11:13:27;8.60;99.90
11132;DHT22;5620;53.570;9.718;2023-11-22T11:15:53;8.80;99.30
11132;DHT22;5620;53.570;9.718;2023-11-22T11:18:20;8.70;1.00
11132;DHT22;5620;53.570;9.718;2023-11-22T11:23:25;8.60;1.00
11132;DHT22;5620;53.570;9.718;2023-11-22T11:26:08;8.70;1.00
11132;DHT22;5620;53.570;9.718;2023-11-22T11:28:50;8.90;1.00
11132;DHT22;5620;53.570;9.718;2023-11-22T11:31:24;9.20;99.90
11132;DHT22;5620;53.570;9.718;2023-11-22T11:33:54;9.40;99.90
11132;DHT22;5620;53.570;9.718;2023-11-22T11:36:25;9.50;99.90
11132;DHT22;5620;53.570;9.718;2023-11-22T11:38:59;9.60;99.90
11132;DHT22;5620;53.570;9.718;2023-11-22T11:41:31;9.80;99.90
11132;DHT22;5620;53.570;9.718;2023-11-22T11:43:57;9.90;23.50
11132;DHT22;5620;53.570;9.718;2023-11-22T11:46:24;9.90;1.00
11132;DHT22;5620;53.570;9.718;2023-11-22T11:48:52;9.80;1.00
11132;DHT22;5620;53.570;9.718;2023-11-22T11:51:24;9.70;1.00
11132;DHT22;5620;53.570;9.718;2023-11-22T11:53:52;9.70;1.00
11132;DHT22;5620;53.570;9.718;2023-11-22T11:56:18;9.70;1.00
11132;DHT22;5620;53.570;9.718;2023-11-22T11:58:45;9.50;99.90
11132;DHT22;5620;53.570;9.718;2023-11-22T12:01:16;9.30;99.90
11132;DHT22;5620;53.570;9.718;2023-11-22T12:03:43;9.10;99.90
11132;DHT22;5620;53.570;9.718;2023-11-22T12:06:15;9.00;99.90
11132;DHT22;5620;53.570;9.718;2023-11-22T12:08:43;8.90;99.90
11132;DHT22;5620;53.570;9.718;2023-11-22T12:11:10;8.90;99.90
11132;DHT22;5620;53.570;9.718;2023-11-22T12:13:37;8.90;99.90
11132;DHT22;5620;53.570;9.718;2023-11-22T12:16:05;8.80;99.90
11132;DHT22;5620;53.570;9.718;2023-11-22T12:18:46;8.70;99.90
11132;DHT22;5620;53.570;9.718;2023-11-22T12:21:14;8.70;99.90
11132;DHT22;5620;53.570;9.718;2023-11-22T12:23:43;8.80;99.90
11132;DHT22;5620;53.570;9.718;2023-11-22T12:26:14;8.80;97.80
11132;DHT22;5620;53.570;9.718;2023-11-22T12:28:44;8.70;75.70
11132;DHT22;5620;53.570;9.718;2023-11-22T12:31:13;8.50;48.10
11132;DHT22;5620;53.570;9.718;2023-11-22T12:33:41;8.30;8.70
11132;DHT22;5620;53.570;9.718;2023-11-22T12:36:10;8.20;8.70
11132;DHT22;5620;53.570;9.718;2023-11-22T12:38:40;8.10;4.50
11132;DHT22;5620;53.570;9.718;2023-11-22T12:41:07;8.00;1.00
11132;DHT22;5620;53.570;9.718;2023-11-22T12:43:36;8.00;1.00
11132;DHT22;5620;53.570;9.718;2023-11-22T12:46:07;7.90;1.00
11132;DHT22;5620;53.570;9.718;2023-11-22T12:48:34;7.80;1.00
11132;DHT22;5620;53.570;9.718;2023-11-22T12:51:01;7.70;1.00
11132;DHT22;5620;53.570;9.718;2023-11-22T12:53:28;7.70;1.00
11132;DHT22;5620;53.570;9.718;2023-11-22T12:55:56;7.60;1.00
11132;DHT22;5620;53.570;9.718;2023-11-22T12:58:25;7.50;1.00
11132;DHT22;5620;53.570;9.718;2023-11-22T13:00:52;7.50;1.00
11132;DHT22;5620;53.570;9.718;2023-11-22T13:03:18;7.50;1.00
11132;DHT22;5620;53.570;9.718;2023-11-22T13:05:45;7.40;1.00
11132;DHT22;5620;53.570;9.718;2023-11-22T13:08:13;7.40;1.00
11132;DHT22;5620;53.570;9.718;2023-11-22T13:10:43;7.30;1.00
11132;DHT22;5620;53.570;9.718;2023-11-22T13:13:09;7.30;1.00
11132;DHT22;5620;53.570;9.718;2023-11-22T13:15:36;7.20;1.00
11132;DHT22;5620;53.570;9.718;2023-11-22T13:18:01;7.10;1.00
11132;DHT22;5620;53.570;9.718;2023-11-22T13:20:28;7.10;1.00
11132;DHT22;5620;53.570;9.718;2023-11-22T13:22:56;7.00;1.00
11132;DHT22;5620;53.570;9.718;2023-11-22T13:25:22;7.00;1.00
11132;DHT22;5620;53.570;9.718;2023-11-22T13:27:50;7.00;1.00
11132;DHT22;5620;53.570;9.718;2023-11-22T13:30:18;7.00;1.00
11132;DHT22;5620;53.570;9.718;2023-11-22T13:32:46;6.90;1.00
11132;DHT22;5620;53.570;9.718;2023-11-22T13:35:13;6.80;1.00
11132;DHT22;5620;53.570;9.718;2023-11-22T13:37:40;6.70;1.00
11132;DHT22;5620;53.570;9.718;2023-11-22T13:40:13;6.70;1.00
11132;DHT22;5620;53.570;9.718;2023-11-22T13:42:42;6.70;1.00
11132;DHT22;5620;53.570;9.718;2023-11-22T13:45:11;6.50;1.00
11132;DHT22;5620;53.570;9.718;2023-11-22T13:47:37;6.50;1.00
11132;DHT22;5620;53.570;9.718;2023-11-22T13:50:05;6.50;1.00
11132;DHT22;5620;53.570;9.718;2023-11-22T13:52:32;6.50;1.00
11132;DHT22;5620;53.570;9.718;2023-11-22T13:54:58;6.50;1.00
11132;DHT22;5620;53.570;9.718;2023-11-22T13:57:25;6.50;1.00
11132;DHT22;5620;53.570;9.718;2023-11-22T13:59:52;6.50;1.00
11132;DHT22;5620;53.570;9.718;2023-11-22T14:02:19;6.40;1.00
11132;DHT22;5620;53.570;9.718;2023-11-22T14:04:45;6.40;1.00
11132;DHT22;5620;53.570;9.718;2023-11-22T14:07:12;6.30;1.00
11132;DHT22;5620;53.570;9.718;2023-11-22T14:09:39;6.40;1.00
11132;DHT22;5620;53.570;9.718;2023-11-22T14:12:06;6.30;1.00
11132;DHT22;5620;53.570;9.718;2023-11-22T14:14:31;6.30;1.00
11132;DHT22;5620;53.570;9.718;2023-11-22T14:16:57;6.20;1.00
11132;DHT22;5620;53.570;9.718;2023-11-22T14:19:22;6.20;1.00
11132;DHT22;5620;53.570;9.718;2023-11-22T14:21:48;6.20;1.00
11132;DHT22;5620;53.570;9.718;2023-11-22T14:24:13;6.10;1.00
11132;DHT22;5620;53.570;9.718;2023-11-22T14:26:39;6.00;1.00
11132;DHT22;5620;53.570;9.718;2023-11-22T14:29:04;6.00;1.00
11132;DHT22;5620;53.570;9.718;2023-11-22T14:31:30;6.00;1.00
11132;DHT22;5620;53.570;9.718;2023-11-22T14:33:56;5.90;1.00
11132;DHT22;5620;53.570;9.718;2023-11-22T14:36:21;5.90;1.00
11132;DHT22;5620;53.570;9.718;2023-11-22T14:38:47;6.00;1.00
11132;DHT22;5620;53.570;9.718;2023-11-22T14:41:12;5.80;1.00
11132;DHT22;5620;53.570;9.718;2023-11-22T14:43:38;5.70;1.00
11132;DHT22;5620;53.570;9.718;2023-11-22T14:46:03;5.60;1.00
11132;DHT22;5620;53.570;9.718;2023-11-22T14:48:29;5.60;1.00
11132;DHT22;5620;53.570;9.718;2023-11-22T14:50:54;5.70;1.00
11132;DHT22;5620;53.570;9.718;2023-11-22T14:53:20;5.60;1.00
11132;DHT22;5620;53.570;9.718;2023-11-22T14:55:45;5.60;1.00
11132;DHT22;5620;53.570;9.718;2023-11-22T14:58:12;5.60;1.00
11132;DHT22;5620;53.570;9.718;2023-11-22T15:00:39;5.60;1.00
11132;DHT22;5620;53.570;9.718;2023-11-22T15:03:04;5.60;1.00
11132;DHT22;5620;53.570;9.718;2023-11-22T15:05:30;5.60;1.00
11132;DHT22;5620;53.570;9.718;2023-11-22T15:07:55;5.60;1.00
11132;DHT22;5620;53.570;9.718;2023-11-22T15:10:22;5.60;1.00
11132;DHT22;5620;53.570;9.718;2023-11-22T15:12:48;5.60;1.00
11132;DHT22;5620;53.570;9.718;2023-11-22T15:15:14;5.50;1.00
11132;DHT22;5620;53.570;9.718;2023-11-22T15:17:41;5.50;1.00
11132;DHT22;5620;53.570;9.718;2023-11-22T15:20:09;5.40;1.00
11132;DHT22;5620;53.570;9.718;2023-11-22T15:22:36;5.40;1.00
11132;DHT22;5620;53.570;9.718;2023-11-22T15:25:04;5.50;1.00
11132;DHT22;5620;53.570;9.718;2023-11-22T15:27:31;5.40;1.00
11132;DHT22;5620;53.570;9.718;2023-11-22T15:29:58;5.40;1.00
11132;DHT22;5620;53.570;9.718;2023-11-22T15:32:24;5.40;1.00
11132;DHT22;5620;53.570;9.718;2023-11-22T15:34:51;5.40;1.00
11132;DHT22;5620;53.570;9.718;2023-11-22T15:37:18;5.30;1.00
11132;DHT22;5620;53.570;9.718;2023-11-22T15:39:44;5.40;1.00
11132;DHT22;5620;53.570;9.718;2023-11-22T15:42:11;5.40;1.00
11132;DHT22;5620;53.570;9.718;2023-11-22T15:44:38;5.40;1.00
11132;DHT22;5620;53.570;9.718;2023-11-22T15:47:05;5.40;1.00
11132;DHT22;5620;53.570;9.718;2023-11-22T15:49:31;5.40;1.00
11132;DHT22;5620;53.570;9.718;2023-11-22T15:51:58;5.30;1.00
11132;DHT22;5620;53.570;9.718;2023-11-22T15:54:25;5.30;1.00
11132;DHT22;5620;53.570;9.718;2023-11-22T15:56:52;5.30;1.00
11132;DHT22;5620;53.570;9.718;2023-11-22T15:59:19;5.30;1.00
11132;DHT22;5620;53.570;9.718;2023-11-22T16:01:46;5.40;1.00
11132;DHT22;5620;53.570;9.718;2023-11-22T16:04:12;5.30;1.00
11132;DHT22;5620;53.570;9.718;2023-11-22T16:06:38;5.30;1.00
11132;DHT22;5620;53.570;9.718;2023-11-22T16:09:05;5.30;1.00
11132;DHT22;5620;53.570;9.718;2023-11-22T16:11:32;5.30;1.00
11132;DHT22;5620;53.570;9.718;2023-11-22T16:13:59;5.20;1.00